Time;durP1;ratioP1;P1;durP2;ratioP2;P2;SDS_P1;SDS_P2;PMS_P1;PMS_P2;Temp;Humidity;BMP_temperature;BMP_pressure;BME280_temperature;BME280_humidity;BME280_pressure;Samples;Min_cycle;Max_cycle;Signal;HPM_P1;HPM_P2
2022/11/22 00:00:09;;;;;;;393.10;155.30;;;2.00;99.90;;;;;;5138423;27;20027;-63
2022/11/22 00:02:35;;;;;;;376.10;150.57;;;2.00;99.90;;;;;;5138361;27;20483;-63
2022/11/22 00:05:02;;;;;;;494.95;190.55;;;2.10;99.90;;;;;;5138203;27;20130;-63
2022/11/22 00:07:28;;;;;;;509.95;208.40;;;2.00;99.90;;;;;;5138205;27;20472;-63
2022/11/22 00:09:54;;;;;;;523.63;215.05;;;2.00;99.90;;;;;;5138341;27;20076;-62
2022/11/22 00:12:20;;;;;;;398.33;165.00;;;2.00;99.90;;;;;;5138085;27;20023;-62
2022/11/22 00:14:46;;;;;;;464.20;187.02;;;1.90;99.90;;;;;;5138025;27;20101;-62
2022/11/22 00:17:12;;;;;;;355.52;147.85;;;1.90;99.90;;;;;;5138043;27;20035;-62
2022/11/22 00:19:41;;;;;;;416.80;164.85;;;1.90;99.90;;;;;;5138051;27;20114;-63
2022/11/22 00:22:07;;;;;;;445.25;176.63;;;1.80;99.90;;;;;;5138144;27;20034;-63
2022/11/22 00:24:33;;;;;;;490.02;192.18;;;1.90;99.90;;;;;;5137871;27;20023;-63
2022/11/22 00:26:59;;;;;;;504.80;195.63;;;2.00;99.90;;;;;;5137875;27;20030;-63
2022/11/22 00:29:25;;;;;;;495.38;200.77;;;2.00;99.90;;;;;;5119510;27;20020;-62
2022/11/22 00:31:51;;;;;;;370.42;152.02;;;2.00;99.90;;;;;;5137782;27;20516;-62
2022/11/22 00:34:17;;;;;;;419.20;164.90;;;2.00;99.90;;;;;;5137824;27;20031;-62
2022/11/22 00:36:43;;;;;;;274.50;122.85;;;2.00;99.90;;;;;;5137881;27;20106;-63
2022/11/22 00:39:09;;;;;;;172.18;79.60;;;1.90;99.90;;;;;;5137567;27;20019;-63
2022/11/22 00:41:35;;;;;;;194.40;90.00;;;1.90;99.90;;;;;;5137590;27;20031;-63
2022/11/22 00:44:00;;;;;;;264.27;115.00;;;1.80;99.90;;;;;;5137657;27;20047;-63
2022/11/22 00:46:26;;;;;;;232.75;104.25;;;1.70;99.90;;;;;;5137524;27;20065;-63
2022/11/22 00:48:52;;;;;;;539.90;240.65;;;1.60;99.90;;;;;;5137345;27;20430;-63
2022/11/22 00:51:18;;;;;;;415.65;181.30;;;1.70;99.90;;;;;;5137484;27;20027;-63
2022/11/22 00:53:44;;;;;;;322.67;141.35;;;1.60;99.90;;;;;;5137145;27;20460;-62
2022/11/22 00:56:10;;;;;;;269.45;125.63;;;1.50;99.90;;;;;;5137248;27;20433;-63
2022/11/22 00:58:36;;;;;;;277.98;127.28;;;1.60;99.90;;;;;;5137357;27;20034;-63
2022/11/22 01:01:02;;;;;;;149.10;71.13;;;1.50;99.90;;;;;;5137160;27;20049;-62
2022/11/22 01:03:28;;;;;;;144.18;71.55;;;1.60;99.90;;;;;;5137211;27;20086;-63
2022/11/22 01:05:53;;;;;;;146.82;72.75;;;1.50;99.90;;;;;;5137217;27;20038;-63
2022/11/22 01:08:20;;;;;;;152.25;75.97;;;1.60;99.90;;;;;;5137136;27;20019;-63
2022/11/22 01:10:45;;;;;;;148.10;69.40;;;1.60;99.90;;;;;;5136444;27;20072;-63
2022/11/22 01:13:11;;;;;;;129.30;67.40;;;1.60;99.90;;;;;;5137097;27;20536;-63
2022/11/22 01:15:38;;;;;;;133.60;67.47;;;1.70;99.90;;;;;;5136808;27;20131;-63
2022/11/22 01:18:04;;;;;;;138.23;69.20;;;1.60;99.90;;;;;;5136838;27;20034;-63
2022/11/22 01:20:30;;;;;;;148.13;76.20;;;1.50;99.90;;;;;;5136882;27;20027;-63
2022/11/22 01:22:57;;;;;;;136.02;68.13;;;1.30;99.90;;;;;;5136775;27;20300;-63
2022/11/22 01:25:23;;;;;;;135.48;67.60;;;1.40;99.90;;;;;;5136903;27;20027;-63
2022/11/22 01:27:49;;;;;;;146.07;72.22;;;1.40;99.90;;;;;;5136648;27;20072;-63
2022/11/22 01:30:16;;;;;;;149.35;74.22;;;1.30;99.90;;;;;;5136618;27;20107;-63
2022/11/22 01:32:42;;;;;;;163.60;84.28;;;1.20;99.90;;;;;;5136858;27;20043;-63
2022/11/22 01:35:08;;;;;;;163.80;86.07;;;1.10;99.90;;;;;;5136714;27;20023;-63
2022/11/22 01:37:34;;;;;;;163.32;81.15;;;1.00;99.90;;;;;;5136483;27;20057;-63
2022/11/22 01:40:00;;;;;;;163.65;84.55;;;0.90;99.90;;;;;;5136545;27;20019;-63
2022/11/22 01:42:58;;;;;;;159.13;85.32;;;0.90;99.90;;;;;;5136529;27;20034;-63
2022/11/22 01:45:30;;;;;;;146.43;74.75;;;0.90;99.90;;;;;;5136417;27;20023;-63
2022/11/22 01:48:02;;;;;;;167.55;83.43;;;0.90;99.90;;;;;;5136240;27;20031;-63
2022/11/22 01:50:31;;;;;;;168.00;84.13;;;0.90;99.90;;;;;;5136213;27;20046;-63
2022/11/22 01:53:02;;;;;;;175.00;85.57;;;0.90;99.90;;;;;;5136158;27;20534;-63
2022/11/22 01:55:28;;;;;;;208.13;94.70;;;0.80;99.90;;;;;;5136251;27;20102;-63
2022/11/22 01:57:55;;;;;;;226.60;100.53;;;0.80;99.90;;;;;;5136177;27;20106;-63
2022/11/22 02:00:21;;;;;;;229.13;97.95;;;0.80;99.90;;;;;;5136463;27;20027;-63
2022/11/22 02:02:54;;;;;;;224.73;97.85;;;0.80;99.90;;;;;;5136156;27;20033;-63
2022/11/22 02:05:24;;;;;;;251.52;105.85;;;0.90;99.90;;;;;;5135931;27;20387;-63
2022/11/22 02:08:11;;;;;;;184.10;88.60;;;0.90;99.90;;;;;;5136196;27;20035;-63
2022/11/22 02:10:43;;;;;;;184.10;91.32;;;1.10;99.90;;;;;;5135977;27;20027;-63
2022/11/22 02:13:10;;;;;;;167.25;88.65;;;1.20;99.90;;;;;;5135763;27;20023;-63
2022/11/22 02:15:36;;;;;;;168.90;87.18;;;1.20;99.90;;;;;;5136026;27;20075;-64
2022/11/22 02:18:02;;;;;;;160.88;81.03;;;1.20;99.90;;;;;;5135714;27;20035;-63
2022/11/22 02:20:28;;;;;;;159.77;80.32;;;1.10;99.90;;;;;;5135693;27;20053;-63
2022/11/22 02:23:10;;;;;;;169.50;83.68;;;1.00;99.90;;;;;;5135038;27;20073;-64
2022/11/22 02:25:36;;;;;;;135.80;68.60;;;1.00;99.90;;;;;;5135556;27;20350;-63
2022/11/22 02:28:06;;;;;;;163.85;79.97;;;0.90;99.90;;;;;;5135701;27;20035;-63
2022/11/22 02:30:31;;;;;;;140.25;72.80;;;0.80;99.90;;;;;;5135644;27;20113;-63
2022/11/22 02:32:57;;;;;;;155.30;77.55;;;0.80;99.90;;;;;;5135533;27;20164;-63
2022/11/22 02:35:28;;;;;;;153.32;74.75;;;0.70;99.90;;;;;;5135779;27;20027;-64
2022/11/22 02:38:08;;;;;;;157.32;80.03;;;0.70;99.90;;;;;;5135743;27;20031;-64
2022/11/22 02:40:57;;;;;;;205.45;102.30;;;0.70;99.90;;;;;;5135463;27;20493;-63
2022/11/22 02:43:28;;;;;;;202.23;96.80;;;0.60;99.90;;;;;;5117446;28;20387;-63
2022/11/22 02:45:54;;;;;;;;;;;0.60;99.90;;;;;;5136081;28;20050;-63
2022/11/22 02:48:20;;;;;;;190.73;91.28;;;0.60;99.90;;;;;;5135253;28;19976;-63
2022/11/22 02:50:46;;;;;;;213.20;100.65;;;0.70;99.90;;;;;;5135582;28;20051;-64
2022/11/22 02:53:13;;;;;;;181.73;87.03;;;0.70;99.90;;;;;;5135418;28;20027;-63
2022/11/22 02:55:39;;;;;;;188.77;90.55;;;0.70;99.90;;;;;;5135394;28;20026;-63
2022/11/22 02:58:05;;;;;;;200.13;90.45;;;0.80;99.90;;;;;;5135423;28;20023;-63
2022/11/22 03:00:32;;;;;;;179.15;83.50;;;0.80;99.90;;;;;;5135482;28;20038;-63
2022/11/22 03:02:58;;;;;;;167.52;75.28;;;0.90;99.90;;;;;;5135329;28;20058;-63
2022/11/22 03:05:24;;;;;;;162.52;75.57;;;1.10;99.90;;;;;;5135390;28;20019;-63
2022/11/22 03:07:50;;;;;;;154.55;70.03;;;1.10;99.90;;;;;;5135200;28;20033;-63
2022/11/22 03:10:16;;;;;;;147.75;73.47;;;1.00;99.90;;;;;;5135316;28;20034;-64
2022/11/22 03:12:42;;;;;;;145.65;65.68;;;1.10;99.90;;;;;;5135371;28;20038;-63
2022/11/22 03:15:08;;;;;;;148.90;70.88;;;1.10;99.90;;;;;;5135180;28;20043;-64
2022/11/22 03:17:34;;;;;;;173.57;81.88;;;1.00;99.90;;;;;;5135050;28;20042;-63
2022/11/22 03:20:00;;;;;;;166.85;79.93;;;1.10;99.90;;;;;;5135299;28;20023;-63
2022/11/22 03:22:26;;;;;;;178.27;85.28;;;1.00;99.90;;;;;;5135162;28;20023;-63
2022/11/22 03:24:52;;;;;;;188.20;92.03;;;0.90;99.90;;;;;;5135260;28;20061;-63
2022/11/22 03:27:18;;;;;;;182.27;85.35;;;0.70;99.90;;;;;;5135060;28;20027;-64
2022/11/22 03:29:45;;;;;;;173.73;83.65;;;0.70;99.90;;;;;;5134997;28;20051;-64
2022/11/22 03:32:10;;;;;;;162.77;80.60;;;0.70;99.90;;;;;;5135037;27;20019;-63
2022/11/22 03:34:37;;;;;;;162.68;76.57;;;0.70;99.90;;;;;;5138850;27;20383;-63
2022/11/22 03:37:02;;;;;;;179.25;87.50;;;0.80;99.90;;;;;;5138867;27;20110;-63
2022/11/22 03:39:28;;;;;;;166.20;81.22;;;0.90;99.90;;;;;;5139027;27;20050;-63
2022/11/22 03:41:55;;;;;;;155.75;74.78;;;0.80;99.90;;;;;;5138837;27;20023;-63
2022/11/22 03:44:22;;;;;;;146.80;67.88;;;0.80;99.90;;;;;;5138712;27;20376;-63
2022/11/22 03:46:48;;;;;;;150.05;68.75;;;0.90;99.90;;;;;;5138753;27;20106;-64
2022/11/22 03:49:14;;;;;;;127.53;60.00;;;1.00;99.90;;;;;;5138566;27;20054;-64
2022/11/22 03:51:40;;;;;;;114.18;56.53;;;1.10;99.90;;;;;;5138743;27;20015;-63
2022/11/22 03:54:05;;;;;;;101.55;48.70;;;1.30;99.90;;;;;;5138711;27;20026;-63
2022/11/22 03:56:31;;;;;;;101.15;47.80;;;1.40;99.90;;;;;;5138583;27;20084;-64
2022/11/22 03:58:57;;;;;;;106.05;48.55;;;1.40;99.90;;;;;;5138520;27;20029;-64
2022/11/22 04:01:23;;;;;;;106.70;49.08;;;1.40;99.90;;;;;;5138526;27;20034;-64
2022/11/22 04:03:49;;;;;;;108.93;48.08;;;1.30;99.90;;;;;;5138424;27;20031;-64
2022/11/22 04:06:15;;;;;;;100.75;47.47;;;1.30;99.90;;;;;;5138198;27;20023;-63
2022/11/22 04:08:41;;;;;;;92.72;45.88;;;1.20;99.90;;;;;;5138381;27;20026;-63
2022/11/22 04:11:06;;;;;;;91.68;44.88;;;1.10;99.90;;;;;;5138223;27;20031;-63
2022/11/22 04:16:16;;;;;;;95.68;46.22;;;1.10;99.90;;;;;;5138254;27;20035;-63
2022/11/22 04:18:42;;;;;;;95.28;44.13;;;1.10;99.90;;;;;;5138110;27;20031;-63
2022/11/22 04:21:53;;;;;;;104.18;48.15;;;1.10;99.90;;;;;;5138167;27;20031;-63
2022/11/22 04:26:39;;;;;;;106.85;51.20;;;1.20;99.90;;;;;;5138003;27;20027;-63
2022/11/22 04:29:05;;;;;;;116.38;54.35;;;1.10;99.90;;;;;;5137755;27;20410;-63
2022/11/22 04:34:15;;;;;;;103.45;48.22;;;1.10;99.90;;;;;;5137935;27;20055;-63
2022/11/22 04:36:41;;;;;;;105.63;48.30;;;1.00;99.90;;;;;;5137840;27;20491;-63
2022/11/22 04:39:07;;;;;;;105.55;47.75;;;1.00;99.90;;;;;;5137762;27;20460;-63
2022/11/22 04:41:33;;;;;;;112.30;47.97;;;1.10;99.90;;;;;;5137580;27;20029;-63
2022/11/22 04:46:43;;;;;;;89.78;44.78;;;1.10;99.90;;;;;;5137516;27;20031;-63
2022/11/22 04:49:09;;;;;;;111.95;53.35;;;0.80;99.90;;;;;;5137369;27;20027;-63
2022/11/22 04:54:19;;;;;;;148.30;70.75;;;0.80;99.90;;;;;;5137347;27;20537;-63
2022/11/22 04:56:45;;;;;;;152.07;72.85;;;0.70;99.90;;;;;;5137358;27;20134;-63
2022/11/22 04:59:11;;;;;;;146.05;70.07;;;0.60;99.90;;;;;;5137445;27;20460;-64
2022/11/22 05:01:37;;;;;;;158.32;73.88;;;0.70;99.90;;;;;;5137343;27;20033;-63
2022/11/22 05:04:03;;;;;;;139.20;65.85;;;0.70;99.90;;;;;;5137170;27;20034;-64
2022/11/22 05:06:29;;;;;;;116.80;58.45;;;0.60;99.90;;;;;;5137405;27;20031;-63
2022/11/22 05:08:56;;;;;;;115.05;56.05;;;0.60;99.90;;;;;;5137003;27;20038;-64
2022/11/22 05:11:21;;;;;;;104.57;53.13;;;0.60;99.90;;;;;;5137310;27;20550;-63
2022/11/22 05:13:47;;;;;;;127.93;58.08;;;0.60;99.90;;;;;;5137028;27;20051;-63
2022/11/22 05:16:14;;;;;;;115.75;54.75;;;0.60;99.90;;;;;;5137044;27;20072;-63
2022/11/22 05:18:41;;;;;;;115.72;54.80;;;0.50;99.90;;;;;;5136870;27;20031;-64
2022/11/22 05:21:09;;;;;;;119.57;58.80;;;0.60;99.90;;;;;;5136938;27;20027;-63
2022/11/22 05:23:54;;;;;;;119.80;57.17;;;0.60;99.90;;;;;;5136798;27;20031;-63
2022/11/22 05:26:25;;;;;;;124.55;57.13;;;0.70;99.90;;;;;;5136831;27;20380;-63
2022/11/22 05:28:51;;;;;;;117.75;56.58;;;0.80;99.90;;;;;;5136555;27;20023;-63
2022/11/22 05:31:22;;;;;;;116.38;56.25;;;0.60;99.90;;;;;;5136531;27;20028;-63
2022/11/22 05:33:52;;;;;;;122.10;60.70;;;0.70;99.90;;;;;;5136759;27;20027;-63
2022/11/22 05:36:18;;;;;;;117.83;57.97;;;0.70;99.90;;;;;;5136675;27;20027;-63
2022/11/22 05:38:44;;;;;;;104.22;52.53;;;0.70;99.90;;;;;;5136598;27;20252;-63
2022/11/22 05:41:12;;;;;;;122.53;59.15;;;1.00;99.90;;;;;;5118111;27;20035;-64
2022/11/22 05:43:38;;;;;;;106.50;52.03;;;1.00;99.90;;;;;;5136447;27;20027;-63
2022/11/22 05:46:11;;;;;;;115.78;53.92;;;1.20;99.90;;;;;;5136304;27;20048;-63
2022/11/22 05:48:39;;;;;;;133.50;61.67;;;1.40;99.90;;;;;;5136202;27;20031;-63
2022/11/22 05:51:07;;;;;;;124.70;62.15;;;1.50;99.90;;;;;;5136399;27;20076;-63
2022/11/22 05:53:34;;;;;;;146.05;68.20;;;1.60;99.90;;;;;;5136229;27;20027;-63
2022/11/22 05:56:10;;;;;;;131.65;64.57;;;1.70;99.90;;;;;;5135994;27;20058;-64
2022/11/22 05:58:37;;;;;;;153.55;72.78;;;1.80;99.90;;;;;;5136148;27;20385;-64
2022/11/22 06:01:08;;;;;;;228.50;94.47;;;1.90;99.90;;;;;;5135968;27;20145;-64
2022/11/22 06:03:35;;;;;;;227.15;94.57;;;1.90;99.90;;;;;;5136075;27;20106;-64
2022/11/22 06:06:01;;;;;;;214.85;90.18;;;2.00;99.90;;;;;;5135955;27;20083;-64
2022/11/22 06:08:31;;;;;;;188.63;80.15;;;2.00;99.90;;;;;;5135863;27;20038;-64
2022/11/22 06:11:09;;;;;;;178.60;80.35;;;2.00;99.90;;;;;;5136012;27;20015;-63
2022/11/22 06:13:40;;;;;;;163.75;73.65;;;2.10;99.90;;;;;;5135605;27;20035;-64
2022/11/22 06:16:07;;;;;;;161.15;74.05;;;2.20;99.90;;;;;;5135834;27;20055;-64
2022/11/22 06:18:34;;;;;;;170.10;77.03;;;2.30;99.90;;;;;;5117699;27;20080;-64
2022/11/22 06:21:01;;;;;;;176.02;78.28;;;2.40;99.90;;;;;;5136425;27;20035;-64
2022/11/22 06:23:28;;;;;;;182.55;77.63;;;2.30;99.90;;;;;;5136287;27;20023;-64
2022/11/22 06:26:02;;;;;;;172.73;74.50;;;2.40;99.90;;;;;;5133779;27;20038;-64
2022/11/22 06:28:29;;;;;;;157.13;64.35;;;2.30;99.90;;;;;;5135111;27;20038;-64
2022/11/22 06:31:03;;;;;;;133.45;60.03;;;2.40;99.90;;;;;;5135537;27;20496;-64
2022/11/22 06:33:29;;;;;;;145.65;67.28;;;2.20;99.90;;;;;;5135252;27;20031;-64
2022/11/22 06:36:03;;;;;;;135.73;65.90;;;2.30;99.90;;;;;;5135359;27;20072;-64
2022/11/22 06:38:29;;;;;;;141.05;65.05;;;2.40;99.90;;;;;;5135573;27;20027;-64
2022/11/22 06:41:08;;;;;;;155.63;69.85;;;2.20;99.90;;;;;;5135224;27;20034;-64
2022/11/22 06:43:36;;;;;;;139.63;64.63;;;2.40;99.90;;;;;;5135443;28;20082;-64
2022/11/22 06:46:04;;;;;;;153.40;75.47;;;2.40;99.90;;;;;;5135279;28;20507;-64
2022/11/22 06:48:32;;;;;;;152.23;73.65;;;2.30;99.90;;;;;;5132605;28;20445;-64
2022/11/22 06:51:06;;;;;;;161.48;71.53;;;2.30;99.90;;;;;;5135652;28;20026;-63
2022/11/22 06:53:34;;;;;;;156.52;74.18;;;2.30;99.90;;;;;;5135204;28;20614;-63
2022/11/22 06:56:05;;;;;;;180.95;82.85;;;2.50;99.90;;;;;;5115465;28;20020;-63
2022/11/22 06:58:32;;;;;;;172.85;83.57;;;2.50;99.90;;;;;;5115457;28;20032;-63
2022/11/22 07:01:05;;;;;;;180.07;83.35;;;2.50;99.90;;;;;;5114795;28;20110;-63
2022/11/22 07:03:34;;;;;;;188.88;88.90;;;2.60;99.90;;;;;;5116771;28;20077;-64
2022/11/22 07:06:00;;;;;;;152.73;73.03;;;2.60;99.90;;;;;;5129647;28;20538;-64
2022/11/22 07:08:26;;;;;;;149.43;76.75;;;2.70;99.90;;;;;;5136437;27;20031;-64
2022/11/22 07:10:52;;;;;;;172.60;82.25;;;2.70;99.90;;;;;;5138805;27;20038;-63
2022/11/22 07:13:19;;;;;;;176.75;82.13;;;2.70;99.90;;;;;;5139165;27;20102;-64
2022/11/22 07:16:12;;;;;;;166.27;81.47;;;2.90;99.90;;;;;;5139030;27;20035;-64
2022/11/22 07:18:39;;;;;;;173.00;86.15;;;3.00;99.90;;;;;;5116857;27;20040;-64
2022/11/22 07:21:08;;;;;;;161.75;78.65;;;2.90;99.90;;;;;;5126692;27;20381;-64
2022/11/22 07:23:34;;;;;;;155.77;75.18;;;3.10;99.90;;;;;;5138801;27;20038;-64
2022/11/22 07:26:00;;;;;;;173.15;78.45;;;3.20;99.90;;;;;;5138867;27;20019;-64
2022/11/22 07:28:27;;;;;;;179.95;80.78;;;3.30;99.90;;;;;;5136651;27;20031;-64
2022/11/22 07:30:57;;;;;;;180.13;88.72;;;3.30;99.90;;;;;;5135347;27;20031;-63
2022/11/22 07:33:23;;;;;;;202.75;102.78;;;3.20;99.90;;;;;;5137792;27;20023;-64
2022/11/22 07:35:49;;;;;;;191.18;87.93;;;3.20;99.90;;;;;;5139208;27;20101;-63
2022/11/22 07:38:15;;;;;;;187.88;87.05;;;3.30;99.90;;;;;;5121077;27;20066;-64
2022/11/22 07:40:41;;;;;;;192.80;88.68;;;3.20;99.90;;;;;;5138431;27;20479;-64
2022/11/22 07:43:08;;;;;;;175.95;84.30;;;3.40;99.90;;;;;;5137998;27;20046;-64
2022/11/22 07:45:34;;;;;;;246.63;113.10;;;3.40;99.90;;;;;;5119479;27;20035;-64
2022/11/22 07:48:00;;;;;;;243.45;117.05;;;3.30;99.90;;;;;;5138318;27;20024;-64
2022/11/22 07:50:27;;;;;;;230.07;109.45;;;3.40;99.90;;;;;;5138444;27;20026;-64
2022/11/22 07:52:59;;;;;;;291.25;128.52;;;3.40;99.90;;;;;;5119872;27;20031;-64
2022/11/22 07:55:26;;;;;;;259.35;118.45;;;3.50;99.90;;;;;;5134682;27;20023;-64
2022/11/22 07:57:53;;;;;;;242.15;116.78;;;3.50;99.90;;;;;;5138457;27;20035;-64
2022/11/22 08:00:19;;;;;;;290.80;134.20;;;3.60;99.90;;;;;;5125459;27;20056;-64
2022/11/22 08:02:45;;;;;;;339.63;169.32;;;3.70;99.90;;;;;;5126545;27;20023;-64
2022/11/22 08:05:12;;;;;;;275.80;132.77;;;3.70;99.90;;;;;;5138559;27;20061;-64
2022/11/22 08:07:38;;;;;;;257.48;118.72;;;3.60;99.90;;;;;;5138658;27;20015;-64
2022/11/22 08:10:04;;;;;;;278.58;132.60;;;3.70;99.90;;;;;;5138236;27;20031;-64
2022/11/22 08:12:30;;;;;;;264.52;123.45;;;3.80;99.90;;;;;;5138694;27;20025;-63
2022/11/22 08:14:56;;;;;;;231.07;114.07;;;3.90;99.90;;;;;;5138556;27;20047;-65
2022/11/22 08:17:22;;;;;;;196.05;95.32;;;3.90;99.90;;;;;;5138163;27;20433;-64
2022/11/22 08:19:52;;;;;;;268.88;119.05;;;3.90;99.90;;;;;;5135835;27;20026;-63
2022/11/22 08:22:18;;;;;;;249.85;116.90;;;4.10;99.90;;;;;;5137444;27;20465;-63
2022/11/22 08:24:44;;;;;;;269.00;126.35;;;4.20;99.90;;;;;;5136286;27;20027;-63
2022/11/22 08:27:10;;;;;;;248.60;122.40;;;4.40;99.90;;;;;;5137882;27;20385;-64
2022/11/22 08:29:36;;;;;;;252.73;126.38;;;4.50;99.90;;;;;;5134930;27;20096;-64
2022/11/22 08:32:04;;;;;;;243.27;125.22;;;4.30;99.90;;;;;;5132031;27;20487;-63
2022/11/22 08:34:30;;;;;;;268.73;135.20;;;4.50;99.90;;;;;;5125178;27;20031;-63
2022/11/22 08:36:56;;;;;;;240.20;125.97;;;4.30;99.90;;;;;;5129650;27;20115;-63
2022/11/22 08:39:22;;;;;;;245.73;130.27;;;4.20;99.90;;;;;;5129854;27;20063;-63
2022/11/22 08:41:48;;;;;;;253.50;130.23;;;4.20;99.90;;;;;;5127762;27;20123;-63
2022/11/22 08:44:14;;;;;;;220.52;114.70;;;4.30;99.90;;;;;;5131034;27;20035;-63
2022/11/22 08:46:39;;;;;;;214.45;109.82;;;4.30;99.90;;;;;;5125732;27;20059;-63
2022/11/22 08:49:09;;;;;;;203.93;105.65;;;4.30;99.90;;;;;;5134233;27;20023;-63
2022/11/22 08:51:35;;;;;;;232.98;120.53;;;4.20;99.90;;;;;;5129213;27;20027;-63
2022/11/22 08:54:01;;;;;;;229.10;114.43;;;4.20;99.90;;;;;;5134832;27;20032;-63
2022/11/22 08:56:27;;;;;;;235.52;116.93;;;4.30;99.90;;;;;;5128223;27;20046;-63
2022/11/22 08:58:54;;;;;;;225.95;116.03;;;4.40;99.90;;;;;;5134565;27;20050;-63
2022/11/22 09:01:20;;;;;;;195.50;101.50;;;4.20;99.90;;;;;;5129529;27;20023;-63
2022/11/22 09:03:46;;;;;;;189.15;90.90;;;4.30;99.90;;;;;;5125418;27;20040;-61
2022/11/22 09:06:18;;;;;;;192.63;98.03;;;4.30;99.90;;;;;;5123342;27;20034;-61
2022/11/22 09:08:44;;;;;;;178.68;93.15;;;4.20;99.90;;;;;;5124047;27;20050;-61
2022/11/22 09:11:12;;;;;;;179.35;94.07;;;4.20;99.90;;;;;;5128652;27;20020;-61
2022/11/22 09:13:39;;;;;;;216.82;112.53;;;4.30;99.90;;;;;;5128355;27;20484;-61
2022/11/22 09:16:08;;;;;;;191.30;100.70;;;4.20;99.90;;;;;;5132135;27;20080;-61
2022/11/22 09:18:34;;;;;;;185.40;102.63;;;4.30;99.90;;;;;;5135995;27;20278;-61
2022/11/22 09:21:03;;;;;;;200.60;106.07;;;4.50;99.90;;;;;;5131780;27;20392;-61
2022/11/22 09:23:30;;;;;;;446.00;212.02;;;4.50;99.90;;;;;;5130973;27;20019;-62
2022/11/22 09:26:04;;;;;;;373.40;177.63;;;4.60;99.90;;;;;;5136023;27;20034;-62
2022/11/22 09:28:31;;;;;;;316.05;149.32;;;4.60;99.90;;;;;;5125875;27;20033;-62
2022/11/22 09:31:09;;;;;;;167.32;85.72;;;4.60;99.90;;;;;;5109307;27;20016;-63
2022/11/22 09:33:37;;;;;;;213.02;108.80;;;4.50;99.90;;;;;;5141417;27;20389;-62
2022/11/22 09:36:14;;;;;;;160.38;89.38;;;4.70;99.90;;;;;;5134202;27;20027;-62
2022/11/22 09:38:41;;;;;;;169.57;94.45;;;4.70;99.90;;;;;;5123974;27;20340;-62
2022/11/22 09:41:40;;;;;;;151.27;84.13;;;4.60;99.90;;;;;;5137004;27;20023;-62
2022/11/22 09:44:18;;;;;;;185.70;95.88;;;4.70;99.90;;;;;;5131837;27;20897;-62
2022/11/22 09:47:17;;;;;;;193.70;106.03;;;4.60;99.90;;;;;;5130929;27;20023;-63
2022/11/22 09:50:11;;;;;;;206.68;112.15;;;4.50;99.90;;;;;;5133974;27;20042;-63
2022/11/22 09:52:54;;;;;;;183.50;97.07;;;4.50;99.90;;;;;;5134960;27;20491;-63
2022/11/22 09:55:23;;;;;;;204.13;108.28;;;4.60;99.90;;;;;;5136256;27;20513;-62
2022/11/22 09:58:00;;;;;;;256.25;137.68;;;4.60;99.90;;;;;;5134450;27;20019;-62
2022/11/22 10:00:27;;;;;;;235.15;125.63;;;4.80;99.90;;;;;;5136821;27;20031;-62
2022/11/22 10:03:04;;;;;;;202.50;114.97;;;5.00;99.90;;;;;;5136635;27;20491;-63
2022/11/22 10:05:37;;;;;;;99.63;55.50;;;5.20;99.90;;;;;;5136532;27;20056;-62
2022/11/22 10:08:22;;;;;;;51.08;26.10;;;5.50;99.90;;;;;;5136228;27;20628;-62
2022/11/22 10:10:55;;;;;;;38.15;19.23;;;5.90;99.90;;;;;;5136838;27;20118;-62
2022/11/22 10:13:39;;;;;;;13.77;7.50;;;6.30;99.90;;;;;;5136557;27;20038;-63
2022/11/22 10:16:22;;;;;;;18.30;10.85;;;6.90;99.90;;;;;;5136475;27;20035;-63
2022/11/22 10:19:03;;;;;;;14.05;7.72;;;7.40;99.90;;;;;;5136573;27;20023;-63
2022/11/22 10:21:33;;;;;;;14.25;6.10;;;7.70;99.90;;;;;;5136107;27;20117;-63
2022/11/22 10:23:59;;;;;;;12.40;6.82;;;8.00;99.90;;;;;;5134962;27;20030;-62
2022/11/22 10:26:32;;;;;;;15.07;8.05;;;8.10;99.90;;;;;;5115733;27;20111;-63
2022/11/22 10:29:31;;;;;;;12.25;5.47;;;8.30;99.90;;;;;;5115405;28;20016;-62
2022/11/22 10:32:33;;;;;;;15.82;8.50;;;8.60;99.90;;;;;;5120989;27;20019;-62
2022/11/22 10:35:15;;;;;;;8.60;5.15;;;8.70;99.90;;;;;;5127439;27;20027;-63
2022/11/22 10:38:19;;;;;;;18.35;8.30;;;8.90;99.90;;;;;;5127487;27;20477;-62
2022/11/22 10:41:03;;;;;;;10.10;5.05;;;9.20;99.90;;;;;;5107868;27;20035;-63
2022/11/22 10:43:35;;;;;;;53.83;7.65;;;9.20;99.90;;;;;;5128308;27;20066;-62
2022/11/22 10:46:21;;;;;;;14.48;6.15;;;9.30;99.90;;;;;;5125822;28;20475;-64
2022/11/22 10:49:21;;;;;;;13.45;4.50;;;9.40;99.90;;;;;;5125241;28;20057;-63
2022/11/22 10:52:08;;;;;;;10.27;4.53;;;9.40;99.90;;;;;;5124230;28;20031;-63
2022/11/22 10:55:01;;;;;;;10.27;3.95;;;9.50;99.90;;;;;;5114150;28;20517;-62
2022/11/22 10:57:38;;;;;;;6.22;3.22;;;9.50;99.90;;;;;;5128370;28;20111;-63
2022/11/22 11:00:13;;;;;;;5.65;2.95;;;9.50;99.90;;;;;;5114633;28;20028;-63
2022/11/22 11:02:45;;;;;;;6.15;2.55;;;9.60;99.90;;;;;;5128774;28;20030;-62
2022/11/22 11:05:16;;;;;;;9.45;3.85;;;9.60;99.90;;;;;;5127943;28;20015;-62
2022/11/22 11:07:47;;;;;;;11.70;6.05;;;9.70;99.90;;;;;;5114473;28;20047;-63
2022/11/22 11:10:36;;;;;;;12.45;6.60;;;9.70;99.90;;;;;;5126555;28;20031;-62
2022/11/22 11:13:13;;;;;;;10.52;3.22;;;9.80;99.90;;;;;;5122487;28;20068;-63
2022/11/22 11:15:53;;;;;;;6.78;3.38;;;9.80;98.90;;;;;;5120665;28;20032;-62
2022/11/22 11:18:24;;;;;;;9.70;4.68;;;9.90;99.30;;;;;;5130684;28;20490;-62
2022/11/22 11:20:52;;;;;;;14.35;4.57;;;9.90;99.90;;;;;;5135161;28;20035;-62
2022/11/22 11:23:18;;;;;;;14.77;4.40;;;9.90;98.20;;;;;;5135006;28;20147;-62
2022/11/22 11:25:46;;;;;;;15.82;4.95;;;9.90;98.80;;;;;;5134746;28;20545;-62
2022/11/22 11:28:24;;;;;;;16.60;4.50;;;10.00;99.50;;;;;;5134962;28;20063;-63
2022/11/22 11:31:09;;;;;;;13.27;5.40;;;10.00;98.60;;;;;;5134824;28;20436;-62
2022/11/22 11:33:39;;;;;;;17.10;5.50;;;10.10;98.20;;;;;;5130932;28;20042;-62
2022/11/22 11:36:19;;;;;;;15.40;5.63;;;10.20;98.50;;;;;;5135685;28;20028;-63
2022/11/22 11:38:44;;;;;;;17.95;5.75;;;10.20;98.00;;;;;;5121786;28;20384;-62
2022/11/22 11:41:23;;;;;;;20.80;6.20;;;10.30;97.60;;;;;;5120249;28;20019;-62
2022/11/22 11:43:51;;;;;;;15.23;4.80;;;10.30;97.90;;;;;;5114335;28;20035;-62
2022/11/22 11:46:18;;;;;;;25.33;4.95;;;10.40;96.30;;;;;;5113541;28;20032;-63
2022/11/22 11:48:45;;;;;;;12.35;4.53;;;10.40;96.00;;;;;;5117034;28;20028;-62
2022/11/22 11:51:20;;;;;;;16.08;6.47;;;10.50;95.50;;;;;;5120325;28;20051;-62
2022/11/22 11:54:14;;;;;;;13.00;5.88;;;10.50;94.70;;;;;;5126691;27;20023;-62
2022/11/22 11:56:47;;;;;;;17.60;6.47;;;10.60;95.10;;;;;;5117708;28;20028;-62
2022/11/22 11:59:41;;;;;;;20.98;7.10;;;10.60;94.50;;;;;;5122664;27;20154;-63
2022/11/22 12:02:12;;;;;;;14.50;5.53;;;10.60;94.60;;;;;;5116179;27;20081;-62
2022/11/22 12:05:04;;;;;;;22.67;5.40;;;10.70;93.50;;;;;;5133757;27;20110;-62
2022/11/22 12:07:33;;;;;;;11.25;4.97;;;10.70;92.90;;;;;;5132359;27;20480;-62
2022/11/22 12:09:59;;;;;;;27.15;4.50;;;10.70;93.70;;;;;;5117807;27;20114;-62
2022/11/22 12:12:31;;;;;;;9.93;4.68;;;10.80;92.40;;;;;;5132515;27;20079;-62
2022/11/22 12:15:13;;;;;;;17.50;5.15;;;10.80;92.80;;;;;;5137711;27;20042;-62
2022/11/22 12:17:59;;;;;;;22.58;5.30;;;10.80;92.70;;;;;;5139631;27;20468;-63
2022/11/22 12:20:40;;;;;;;17.77;6.18;;;10.80;91.80;;;;;;5138268;27;20387;-63
2022/11/22 12:23:23;;;;;;;16.70;5.22;;;10.90;92.40;;;;;;5138374;27;20023;-63
2022/11/22 12:25:53;;;;;;;20.00;6.15;;;10.90;92.10;;;;;;5138489;27;20104;-63
2022/11/22 12:28:22;;;;;;;37.60;7.78;;;10.90;92.30;;;;;;5138119;27;20051;-63
2022/11/22 12:30:59;;;;;;;20.27;5.75;;;10.90;92.50;;;;;;5137664;27;20025;-62
2022/11/22 12:33:40;;;;;;;15.88;5.47;;;10.90;91.60;;;;;;5138048;27;20043;-62
2022/11/22 12:36:21;;;;;;;14.10;4.90;;;10.90;91.70;;;;;;5133815;27;20026;-62
2022/11/22 12:38:49;;;;;;;14.30;6.68;;;11.00;91.50;;;;;;5137826;27;20856;-62
2022/11/22 12:41:17;;;;;;;20.33;5.05;;;10.90;91.80;;;;;;5132716;27;20031;-62
2022/11/22 12:43:57;;;;;;;11.20;5.30;;;11.00;91.10;;;;;;5134151;27;20030;-61
2022/11/22 12:46:29;;;;;;;18.40;6.45;;;10.90;91.20;;;;;;5137884;27;20043;-62
2022/11/22 12:49:00;;;;;;;9.73;4.72;;;10.90;91.90;;;;;;5128332;27;20569;-62
2022/11/22 12:51:39;;;;;;;10.98;4.72;;;10.90;92.20;;;;;;5127263;27;20400;-62
2022/11/22 12:54:13;;;;;;;34.38;9.10;;;11.00;92.20;;;;;;5113619;27;20106;-62
2022/11/22 12:56:52;;;;;;;18.95;5.72;;;11.00;91.70;;;;;;5136119;27;20437;-63